sensor_id;sensor_type;location;lat;lon;timestamp;temperature;humidity
18454;DHT22;9356;52.202;20.950;2023-12-22T00:00:59;5.60;99.90
18454;DHT22;9356;52.202;20.950;2023-12-22T00:02:05;5.50;99.90
18454;DHT22;9356;52.202;20.950;2023-12-22T00:03:10;5.60;99.90
18454;DHT22;9356;52.202;20.950;2023-12-22T00:04:15;5.50;99.90
18454;DHT22;9356;52.202;20.950;2023-12-22T00:05:35;5.50;99.90
18454;DHT22;9356;52.202;20.950;2023-12-22T00:06:43;5.60;99.90
18454;DHT22;9356;52.202;20.950;2023-12-22T00:07:45;5.70;99.90
18454;DHT22;9356;52.202;20.950;2023-12-22T00:08:50;5.60;99.90
18454;DHT22;9356;52.202;20.950;2023-12-22T00:09:55;5.60;99.90
18454;DHT22;9356;52.202;20.950;2023-12-22T00:11:03;5.60;99.90
18454;DHT22;9356;52.202;20.950;2023-12-22T00:12:08;5.60;99.90
18454;DHT22;9356;52.202;20.950;2023-12-22T00:13:15;5.50;99.90
18454;DHT22;9356;52.202;20.950;2023-12-22T00:14:18;5.60;99.90
18454;DHT22;9356;52.202;20.950;2023-12-22T00:15:23;5.60;99.90
18454;DHT22;9356;52.202;20.950;2023-12-22T00:16:26;5.60;99.90
18454;DHT22;9356;52.202;20.950;2023-12-22T00:17:30;5.50;99.90
18454;DHT22;9356;52.202;20.950;2023-12-22T00:18:34;5.50;99.90
18454;DHT22;9356;52.202;20.950;2023-12-22T00:19:46;5.40;99.90
18454;DHT22;9356;52.202;20.950;2023-12-22T00:20:49;5.40;99.90
18454;DHT22;9356;52.202;20.950;2023-12-22T00:21:57;5.40;99.90
18454;DHT22;9356;52.202;20.950;2023-12-22T00:23:01;5.30;99.90
18454;DHT22;9356;52.202;20.950;2023-12-22T00:24:05;5.40;99.90
18454;DHT22;9356;52.202;20.950;2023-12-22T00:25:11;5.30;99.90
18454;DHT22;9356;52.202;20.950;2023-12-22T00:26:15;5.30;99.90
18454;DHT22;9356;52.202;20.950;2023-12-22T00:27:21;5.30;99.90
18454;DHT22;9356;52.202;20.950;2023-12-22T00:28:25;5.30;99.90
18454;DHT22;9356;52.202;20.950;2023-12-22T00:29:31;5.30;99.90
18454;DHT22;9356;52.202;20.950;2023-12-22T00:30:41;5.30;99.90
18454;DHT22;9356;52.202;20.950;2023-12-22T00:31:50;5.30;99.90
18454;DHT22;9356;52.202;20.950;2023-12-22T00:32:58;5.30;99.90
18454;DHT22;9356;52.202;20.950;2023-12-22T00:34:10;5.30;99.90
18454;DHT22;9356;52.202;20.950;2023-12-22T00:35:14;5.30;99.90
18454;DHT22;9356;52.202;20.950;2023-12-22T00:36:26;5.30;99.90
18454;DHT22;9356;52.202;20.950;2023-12-22T00:37:31;5.20;99.90
18454;DHT22;9356;52.202;20.950;2023-12-22T00:38:35;5.20;99.90
18454;DHT22;9356;52.202;20.950;2023-12-22T00:39:38;5.20;99.90
18454;DHT22;9356;52.202;20.950;2023-12-22T00:40:43;5.20;99.90
18454;DHT22;9356;52.202;20.950;2023-12-22T00:41:46;5.10;99.90
18454;DHT22;9356;52.202;20.950;2023-12-22T00:42:49;5.20;99.90
18454;DHT22;9356;52.202;20.950;2023-12-22T00:43:55;5.20;99.90
18454;DHT22;9356;52.202;20.950;2023-12-22T00:45:07;5.20;99.90
18454;DHT22;9356;52.202;20.950;2023-12-22T00:46:11;5.10;99.90
18454;DHT22;9356;52.202;20.950;2023-12-22T00:47:14;5.10;99.90
18454;DHT22;9356;52.202;20.950;2023-12-22T00:48:19;5.10;99.90
18454;DHT22;9356;52.202;20.950;2023-12-22T00:49:23;5.20;99.90
18454;DHT22;9356;52.202;20.950;2023-12-22T00:50:35;5.20;99.90
18454;DHT22;9356;52.202;20.950;2023-12-22T00:51:38;4.70;99.90
18454;DHT22;9356;52.202;20.950;2023-12-22T00:52:47;5.20;99.90
18454;DHT22;9356;52.202;20.950;2023-12-22T00:53:54;5.10;99.90
18454;DHT22;9356;52.202;20.950;2023-12-22T00:54:58;5.00;99.90
18454;DHT22;9356;52.202;20.950;2023-12-22T00:56:02;5.00;99.90
18454;DHT22;9356;52.202;20.950;2023-12-22T00:57:10;5.10;99.90
18454;DHT22;9356;52.202;20.950;2023-12-22T00:58:19;5.00;99.90
18454;DHT22;9356;52.202;20.950;2023-12-22T00:59:27;5.10;99.90
18454;DHT22;9356;52.202;20.950;2023-12-22T01:00:31;5.30;99.90
18454;DHT22;9356;52.202;20.950;2023-12-22T01:01:39;5.10;99.90
18454;DHT22;9356;52.202;20.950;2023-12-22T01:02:43;5.10;99.90
18454;DHT22;9356;52.202;20.950;2023-12-22T01:03:47;5.10;99.90
18454;DHT22;9356;52.202;20.950;2023-12-22T01:04:51;5.00;99.90
18454;DHT22;9356;52.202;20.950;2023-12-22T01:05:58;5.00;99.90
18454;DHT22;9356;52.202;20.950;2023-12-22T01:07:07;5.00;99.90
18454;DHT22;9356;52.202;20.950;2023-12-22T01:08:13;5.00;99.90
18454;DHT22;9356;52.202;20.950;2023-12-22T01:09:18;5.10;99.90
18454;DHT22;9356;52.202;20.950;2023-12-22T01:10:23;5.00;99.90
18454;DHT22;9356;52.202;20.950;2023-12-22T01:11:31;5.00;99.90
18454;DHT22;9356;52.202;20.950;2023-12-22T01:12:39;5.00;99.90
18454;DHT22;9356;52.202;20.950;2023-12-22T01:13:48;4.90;99.90
18454;DHT22;9356;52.202;20.950;2023-12-22T01:14:59;4.80;99.90
18454;DHT22;9356;52.202;20.950;2023-12-22T01:16:03;4.90;99.90
18454;DHT22;9356;52.202;20.950;2023-12-22T01:17:11;4.80;99.90
18454;DHT22;9356;52.202;20.950;2023-12-22T01:18:18;4.90;99.90
18454;DHT22;9356;52.202;20.950;2023-12-22T01:19:23;4.90;99.90
18454;DHT22;9356;52.202;20.950;2023-12-22T01:20:31;4.80;99.90
18454;DHT22;9356;52.202;20.950;2023-12-22T01:21:38;4.80;99.90
18454;DHT22;9356;52.202;20.950;2023-12-22T01:22:43;4.90;99.90
18454;DHT22;9356;52.202;20.950;2023-12-22T01:23:51;4.90;99.90
18454;DHT22;9356;52.202;20.950;2023-12-22T01:24:55;4.80;99.90
18454;DHT22;9356;52.202;20.950;2023-12-22T01:25:59;4.80;99.90
18454;DHT22;9356;52.202;20.950;2023-12-22T01:27:06;4.80;99.90
18454;DHT22;9356;52.202;20.950;2023-12-22T01:28:21;4.90;99.90
18454;DHT22;9356;52.202;20.950;2023-12-22T01:29:27;4.70;99.90
18454;DHT22;9356;52.202;20.950;2023-12-22T01:30:34;5.10;99.90
18454;DHT22;9356;52.202;20.950;2023-12-22T01:31:39;4.70;99.90
18454;DHT22;9356;52.202;20.950;2023-12-22T01:32:43;4.80;99.90
18454;DHT22;9356;52.202;20.950;2023-12-22T01:33:47;4.80;99.90
18454;DHT22;9356;52.202;20.950;2023-12-22T01:34:50;5.10;99.90
18454;DHT22;9356;52.202;20.950;2023-12-22T01:35:59;4.80;99.90
18454;DHT22;9356;52.202;20.950;2023-12-22T01:37:09;4.80;99.90
18454;DHT22;9356;52.202;20.950;2023-12-22T01:38:15;4.70;99.90
18454;DHT22;9356;52.202;20.950;2023-12-22T01:39:23;4.80;99.90
18454;DHT22;9356;52.202;20.950;2023-12-22T01:40:31;4.70;99.90
18454;DHT22;9356;52.202;20.950;2023-12-22T01:41:35;4.60;99.90
18454;DHT22;9356;52.202;20.950;2023-12-22T01:42:43;4.50;99.90
18454;DHT22;9356;52.202;20.950;2023-12-22T01:43:46;4.60;99.90
18454;DHT22;9356;52.202;20.950;2023-12-22T01:44:56;4.80;99.90
18454;DHT22;9356;52.202;20.950;2023-12-22T01:46:08;4.50;99.90
18454;DHT22;9356;52.202;20.950;2023-12-22T01:47:18;4.50;99.90
18454;DHT22;9356;52.202;20.950;2023-12-22T01:48:26;4.50;99.90
18454;DHT22;9356;52.202;20.950;2023-12-22T01:49:38;4.50;99.90
18454;DHT22;9356;52.202;20.950;2023-12-22T01:50:46;4.60;99.90
18454;DHT22;9356;52.202;20.950;2023-12-22T01:51:51;4.70;99.90
18454;DHT22;9356;52.202;20.950;2023-12-22T01:52:55;4.60;99.90
18454;DHT22;9356;52.202;20.950;2023-12-22T01:54:05;4.70;99.90
18454;DHT22;9356;52.202;20.950;2023-12-22T01:55:11;4.70;99.90
18454;DHT22;9356;52.202;20.950;2023-12-22T01:56:22;4.80;99.90
18454;DHT22;9356;52.202;20.950;2023-12-22T01:57:30;4.70;99.90
18454;DHT22;9356;52.202;20.950;2023-12-22T01:58:42;4.70;99.90
18454;DHT22;9356;52.202;20.950;2023-12-22T01:59:53;4.60;99.90
18454;DHT22;9356;52.202;20.950;2023-12-22T02:01:00;4.50;99.90
18454;DHT22;9356;52.202;20.950;2023-12-22T02:02:07;4.60;99.90
18454;DHT22;9356;52.202;20.950;2023-12-22T02:03:13;4.70;99.90
18454;DHT22;9356;52.202;20.950;2023-12-22T02:04:22;4.60;99.90
18454;DHT22;9356;52.202;20.950;2023-12-22T02:05:26;4.60;99.90
18454;DHT22;9356;52.202;20.950;2023-12-22T02:06:34;4.70;99.90
18454;DHT22;9356;52.202;20.950;2023-12-22T02:07:40;4.70;99.90
18454;DHT22;9356;52.202;20.950;2023-12-22T02:08:46;4.60;99.90
18454;DHT22;9356;52.202;20.950;2023-12-22T02:09:50;4.70;99.90
18454;DHT22;9356;52.202;20.950;2023-12-22T02:10:54;4.60;99.90
18454;DHT22;9356;52.202;20.950;2023-12-22T02:12:01;4.70;99.90
18454;DHT22;9356;52.202;20.950;2023-12-22T02:13:04;4.60;99.90
18454;DHT22;9356;52.202;20.950;2023-12-22T02:14:09;4.70;99.90
18454;DHT22;9356;52.202;20.950;2023-12-22T02:15:12;4.80;99.90
18454;DHT22;9356;52.202;20.950;2023-12-22T02:16:22;4.80;99.90
18454;DHT22;9356;52.202;20.950;2023-12-22T02:17:44;4.80;99.90
18454;DHT22;9356;52.202;20.950;2023-12-22T02:18:55;4.80;99.90
18454;DHT22;9356;52.202;20.950;2023-12-22T02:20:02;4.80;99.90
18454;DHT22;9356;52.202;20.950;2023-12-22T02:21:07;4.90;99.90
18454;DHT22;9356;52.202;20.950;2023-12-22T02:22:11;4.90;99.90
18454;DHT22;9356;52.202;20.950;2023-12-22T02:23:21;4.80;99.90
18454;DHT22;9356;52.202;20.950;2023-12-22T02:24:24;4.70;99.90
18454;DHT22;9356;52.202;20.950;2023-12-22T02:25:29;4.70;99.90
18454;DHT22;9356;52.202;20.950;2023-12-22T02:26:47;4.80;99.90
18454;DHT22;9356;52.202;20.950;2023-12-22T02:27:57;4.70;99.90
18454;DHT22;9356;52.202;20.950;2023-12-22T02:29:10;4.70;99.90
18454;DHT22;9356;52.202;20.950;2023-12-22T02:30:25;4.50;99.90
18454;DHT22;9356;52.202;20.950;2023-12-22T02:31:40;4.70;99.90
18454;DHT22;9356;52.202;20.950;2023-12-22T02:32:55;4.80;99.90
18454;DHT22;9356;52.202;20.950;2023-12-22T02:34:01;4.70;99.90
18454;DHT22;9356;52.202;20.950;2023-12-22T02:35:10;4.70;99.90
18454;DHT22;9356;52.202;20.950;2023-12-22T02:36:20;4.70;99.90
18454;DHT22;9356;52.202;20.950;2023-12-22T02:37:25;4.70;99.90
18454;DHT22;9356;52.202;20.950;2023-12-22T02:38:37;4.60;99.90
18454;DHT22;9356;52.202;20.950;2023-12-22T02:39:43;4.70;99.90
18454;DHT22;9356;52.202;20.950;2023-12-22T02:40:52;4.70;99.90
18454;DHT22;9356;52.202;20.950;2023-12-22T02:41:59;4.70;99.90
18454;DHT22;9356;52.202;20.950;2023-12-22T02:43:08;4.70;99.90
18454;DHT22;9356;52.202;20.950;2023-12-22T02:44:13;4.60;99.90
18454;DHT22;9356;52.202;20.950;2023-12-22T02:45:23;4.60;99.90
18454;DHT22;9356;52.202;20.950;2023-12-22T02:46:29;4.50;99.90
18454;DHT22;9356;52.202;20.950;2023-12-22T02:47:35;4.60;99.90
18454;DHT22;9356;52.202;20.950;2023-12-22T02:48:38;4.60;99.90
18454;DHT22;9356;52.202;20.950;2023-12-22T02:49:44;4.60;99.90
18454;DHT22;9356;52.202;20.950;2023-12-22T02:50:50;4.60;99.90
18454;DHT22;9356;52.202;20.950;2023-12-22T02:51:57;4.60;99.90
18454;DHT22;9356;52.202;20.950;2023-12-22T02:53:00;4.60;99.90
18454;DHT22;9356;52.202;20.950;2023-12-22T02:54:06;4.60;99.90
18454;DHT22;9356;52.202;20.950;2023-12-22T02:55:12;4.60;99.90
18454;DHT22;9356;52.202;20.950;2023-12-22T02:56:19;4.60;99.90
18454;DHT22;9356;52.202;20.950;2023-12-22T02:57:27;4.80;99.90
18454;DHT22;9356;52.202;20.950;2023-12-22T02:58:39;4.80;99.90
18454;DHT22;9356;52.202;20.950;2023-12-22T02:59:47;4.80;99.90
18454;DHT22;9356;52.202;20.950;2023-12-22T03:00:55;4.80;99.90
18454;DHT22;9356;52.202;20.950;2023-12-22T03:01:59;4.70;99.90
18454;DHT22;9356;52.202;20.950;2023-12-22T03:03:02;4.70;99.90
18454;DHT22;9356;52.202;20.950;2023-12-22T03:04:10;4.70;99.90
18454;DHT22;9356;52.202;20.950;2023-12-22T03:05:16;4.70;99.90
18454;DHT22;9356;52.202;20.950;2023-12-22T03:06:23;4.70;99.90
18454;DHT22;9356;52.202;20.950;2023-12-22T03:07:28;4.70;99.90
18454;DHT22;9356;52.202;20.950;2023-12-22T03:08:32;4.80;99.90
18454;DHT22;9356;52.202;20.950;2023-12-22T03:09:43;4.70;99.90
18454;DHT22;9356;52.202;20.950;2023-12-22T03:10:51;4.70;99.90
18454;DHT22;9356;52.202;20.950;2023-12-22T03:11:54;4.60;99.90
18454;DHT22;9356;52.202;20.950;2023-12-22T03:13:06;4.70;99.90
18454;DHT22;9356;52.202;20.950;2023-12-22T03:14:11;4.70;99.90
18454;DHT22;9356;52.202;20.950;2023-12-22T03:15:19;4.70;99.90
18454;DHT22;9356;52.202;20.950;2023-12-22T03:16:22;4.60;99.90
18454;DHT22;9356;52.202;20.950;2023-12-22T03:17:27;4.60;99.90
18454;DHT22;9356;52.202;20.950;2023-12-22T03:18:30;4.60;99.90
18454;DHT22;9356;52.202;20.950;2023-12-22T03:19:34;4.60;99.90
18454;DHT22;9356;52.202;20.950;2023-12-22T03:20:38;4.60;99.90
18454;DHT22;9356;52.202;20.950;2023-12-22T03:21:42;4.60;99.90
18454;DHT22;9356;52.202;20.950;2023-12-22T03:22:46;4.50;99.90
18454;DHT22;9356;52.202;20.950;2023-12-22T03:23:52;4.60;99.90
18454;DHT22;9356;52.202;20.950;2023-12-22T03:24:59;4.70;99.90
18454;DHT22;9356;52.202;20.950;2023-12-22T03:26:04;4.50;99.90
18454;DHT22;9356;52.202;20.950;2023-12-22T03:27:09;4.50;99.90
18454;DHT22;9356;52.202;20.950;2023-12-22T03:28:18;4.30;99.90
18454;DHT22;9356;52.202;20.950;2023-12-22T03:29:21;4.30;99.90
18454;DHT22;9356;52.202;20.950;2023-12-22T03:30:28;4.30;99.90
18454;DHT22;9356;52.202;20.950;2023-12-22T03:32:18;4.20;99.90
18454;DHT22;9356;52.202;20.950;2023-12-22T03:33:22;4.10;99.90
18454;DHT22;9356;52.202;20.950;2023-12-22T03:34:24;4.20;99.90
18454;DHT22;9356;52.202;20.950;2023-12-22T03:35:28;4.10;99.90
18454;DHT22;9356;52.202;20.950;2023-12-22T03:36:31;4.20;99.90
18454;DHT22;9356;52.202;20.950;2023-12-22T03:37:36;4.10;99.90
18454;DHT22;9356;52.202;20.950;2023-12-22T03:38:40;4.20;99.90
18454;DHT22;9356;52.202;20.950;2023-12-22T03:39:45;4.30;99.90
18454;DHT22;9356;52.202;20.950;2023-12-22T03:40:56;4.30;99.90
18454;DHT22;9356;52.202;20.950;2023-12-22T03:42:04;4.20;99.90
18454;DHT22;9356;52.202;20.950;2023-12-22T03:43:07;4.30;99.90
18454;DHT22;9356;52.202;20.950;2023-12-22T03:44:13;4.30;99.90
18454;DHT22;9356;52.202;20.950;2023-12-22T03:49:50;4.30;99.90
18454;DHT22;9356;52.202;20.950;2023-12-22T03:50:58;4.50;99.90
18454;DHT22;9356;52.202;20.950;2023-12-22T03:52:07;4.30;99.90
18454;DHT22;9356;52.202;20.950;2023-12-22T03:53:14;4.20;99.90
18454;DHT22;9356;52.202;20.950;2023-12-22T03:55:37;4.10;99.90
18454;DHT22;9356;52.202;20.950;2023-12-22T04:00:03;4.30;99.90
18454;DHT22;9356;52.202;20.950;2023-12-22T04:01:13;4.40;99.90
18454;DHT22;9356;52.202;20.950;2023-12-22T04:03:30;4.30;99.90
18454;DHT22;9356;52.202;20.950;2023-12-22T04:05:56;4.20;99.90
18454;DHT22;9356;52.202;20.950;2023-12-22T04:07:07;4.30;99.90
18454;DHT22;9356;52.202;20.950;2023-12-22T04:08:13;4.20;99.90
18454;DHT22;9356;52.202;20.950;2023-12-22T04:09:21;4.10;99.90
18454;DHT22;9356;52.202;20.950;2023-12-22T04:10:55;4.20;99.90
18454;DHT22;9356;52.202;20.950;2023-12-22T04:12:28;4.30;99.90
18454;DHT22;9356;52.202;20.950;2023-12-22T04:13:35;4.30;99.90
18454;DHT22;9356;52.202;20.950;2023-12-22T04:14:50;4.30;99.90
18454;DHT22;9356;52.202;20.950;2023-12-22T04:16:06;4.20;99.90
18454;DHT22;9356;52.202;20.950;2023-12-22T04:17:42;4.20;99.90
18454;DHT22;9356;52.202;20.950;2023-12-22T04:19:12;4.20;99.90
18454;DHT22;9356;52.202;20.950;2023-12-22T04:21:40;4.30;99.90
18454;DHT22;9356;52.202;20.950;2023-12-22T04:26:13;4.10;99.90
18454;DHT22;9356;52.202;20.950;2023-12-22T04:29:07;4.10;99.90
18454;DHT22;9356;52.202;20.950;2023-12-22T04:33:41;4.20;99.90
18454;DHT22;9356;52.202;20.950;2023-12-22T04:34:52;4.40;99.90
18454;DHT22;9356;52.202;20.950;2023-12-22T04:36:07;4.30;99.90
18454;DHT22;9356;52.202;20.950;2023-12-22T04:41:09;4.20;99.90
18454;DHT22;9356;52.202;20.950;2023-12-22T04:57:14;4.10;99.90
18454;DHT22;9356;52.202;20.950;2023-12-22T05:01:45;3.80;99.90
18454;DHT22;9356;52.202;20.950;2023-12-22T05:02:53;3.60;99.90
18454;DHT22;9356;52.202;20.950;2023-12-22T05:07:26;3.60;99.90
18454;DHT22;9356;52.202;20.950;2023-12-22T05:08:34;3.70;99.90
18454;DHT22;9356;52.202;20.950;2023-12-22T05:09:45;3.80;99.90
18454;DHT22;9356;52.202;20.950;2023-12-22T05:10:53;3.70;99.90
18454;DHT22;9356;52.202;20.950;2023-12-22T05:13:35;3.80;99.90
18454;DHT22;9356;52.202;20.950;2023-12-22T05:14:43;3.80;99.90
18454;DHT22;9356;52.202;20.950;2023-12-22T05:17:25;3.80;99.90
18454;DHT22;9356;52.202;20.950;2023-12-22T05:19:08;3.90;99.90
18454;DHT22;9356;52.202;20.950;2023-12-22T05:21:32;3.80;99.90
18454;DHT22;9356;52.202;20.950;2023-12-22T05:22:41;3.80;99.90
18454;DHT22;9356;52.202;20.950;2023-12-22T05:23:47;3.70;99.90
18454;DHT22;9356;52.202;20.950;2023-12-22T05:25:34;3.50;99.90
18454;DHT22;9356;52.202;20.950;2023-12-22T05:26:38;3.60;99.90
18454;DHT22;9356;52.202;20.950;2023-12-22T05:29:30;3.60;99.90
18454;DHT22;9356;52.202;20.950;2023-12-22T05:30:34;3.60;99.90
18454;DHT22;9356;52.202;20.950;2023-12-22T05:31:45;3.70;99.90
18454;DHT22;9356;52.202;20.950;2023-12-22T05:32:53;3.60;99.90
18454;DHT22;9356;52.202;20.950;2023-12-22T05:34:00;3.60;99.90
18454;DHT22;9356;52.202;20.950;2023-12-22T05:35:09;3.60;99.90
18454;DHT22;9356;52.202;20.950;2023-12-22T05:37:34;3.60;99.90
18454;DHT22;9356;52.202;20.950;2023-12-22T05:40:01;3.50;99.90
18454;DHT22;9356;52.202;20.950;2023-12-22T05:41:39;3.60;99.90
18454;DHT22;9356;52.202;20.950;2023-12-22T05:44:27;3.50;99.90
18454;DHT22;9356;52.202;20.950;2023-12-22T05:45:37;3.60;99.90
18454;DHT22;9356;52.202;20.950;2023-12-22T05:47:14;3.50;99.90
18454;DHT22;9356;52.202;20.950;2023-12-22T05:49:01;3.40;99.90
18454;DHT22;9356;52.202;20.950;2023-12-22T05:50:08;3.60;99.90
18454;DHT22;9356;52.202;20.950;2023-12-22T05:51:37;3.70;99.90
18454;DHT22;9356;52.202;20.950;2023-12-22T06:14:51;3.60;99.90
18454;DHT22;9356;52.202;20.950;2023-12-22T06:28:05;3.90;99.90
18454;DHT22;9356;52.202;20.950;2023-12-22T06:29:35;4.00;99.90
18454;DHT22;9356;52.202;20.950;2023-12-22T06:32:25;4.00;99.90
18454;DHT22;9356;52.202;20.950;2023-12-22T06:34:50;4.00;99.90
18454;DHT22;9356;52.202;20.950;2023-12-22T06:36:02;4.00;99.90
18454;DHT22;9356;52.202;20.950;2023-12-22T06:39:33;4.00;99.90
18454;DHT22;9356;52.202;20.950;2023-12-22T06:40:46;4.00;99.90
18454;DHT22;9356;52.202;20.950;2023-12-22T06:41:55;4.20;99.90
18454;DHT22;9356;52.202;20.950;2023-12-22T06:43:00;4.20;99.90
18454;DHT22;9356;52.202;20.950;2023-12-22T06:44:07;4.30;99.90
18454;DHT22;9356;52.202;20.950;2023-12-22T06:45:16;5.30;99.90
18454;DHT22;9356;52.202;20.950;2023-12-22T06:48:00;5.30;99.90
18454;DHT22;9356;52.202;20.950;2023-12-22T06:50:39;6.20;99.90
18454;DHT22;9356;52.202;20.950;2023-12-22T06:51:52;6.70;99.90
18454;DHT22;9356;52.202;20.950;2023-12-22T06:54:34;6.30;98.80
18454;DHT22;9356;52.202;20.950;2023-12-22T06:55:47;5.60;97.60
18454;DHT22;9356;52.202;20.950;2023-12-22T06:58:35;5.40;98.00
18454;DHT22;9356;52.202;20.950;2023-12-22T07:00:21;5.10;98.50
18454;DHT22;9356;52.202;20.950;2023-12-22T07:01:29;4.80;97.60
18454;DHT22;9356;52.202;20.950;2023-12-22T07:05:40;4.50;98.40
18454;DHT22;9356;52.202;20.950;2023-12-22T07:06:48;4.50;98.60
18454;DHT22;9356;52.202;20.950;2023-12-22T07:10:41;4.30;99.90
18454;DHT22;9356;52.202;20.950;2023-12-22T07:17:55;5.50;99.90
18454;DHT22;9356;52.202;20.950;2023-12-22T07:23:41;6.80;99.90
18454;DHT22;9356;52.202;20.950;2023-12-22T07:25:56;6.70;99.90
18454;DHT22;9356;52.202;20.950;2023-12-22T07:27:02;6.80;98.60
18454;DHT22;9356;52.202;20.950;2023-12-22T07:28:07;6.80;98.40
18454;DHT22;9356;52.202;20.950;2023-12-22T07:32:48;6.50;99.40
18454;DHT22;9356;52.202;20.950;2023-12-22T07:39:27;6.90;96.40
18454;DHT22;9356;52.202;20.950;2023-12-22T07:41:29;6.70;95.50
18454;DHT22;9356;52.202;20.950;2023-12-22T07:44:22;6.60;95.30
18454;DHT22;9356;52.202;20.950;2023-12-22T07:46:38;6.90;97.20
18454;DHT22;9356;52.202;20.950;2023-12-22T07:48:12;7.00;97.40
18454;DHT22;9356;52.202;20.950;2023-12-22T07:49:23;6.70;95.30
18454;DHT22;9356;52.202;20.950;2023-12-22T07:51:11;6.30;94.50
18454;DHT22;9356;52.202;20.950;2023-12-22T07:53:53;6.20;96.50
18454;DHT22;9356;52.202;20.950;2023-12-22T07:55:43;6.90;97.80
18454;DHT22;9356;52.202;20.950;2023-12-22T07:58:01;7.00;92.80
18454;DHT22;9356;52.202;20.950;2023-12-22T07:59:08;6.30;93.40
18454;DHT22;9356;52.202;20.950;2023-12-22T08:01:06;5.70;93.70
18454;DHT22;9356;52.202;20.950;2023-12-22T08:02:21;5.70;94.80
18454;DHT22;9356;52.202;20.950;2023-12-22T08:04:22;5.30;95.10
18454;DHT22;9356;52.202;20.950;2023-12-22T08:07:03;5.20;95.00
18454;DHT22;9356;52.202;20.950;2023-12-22T08:08:50;5.20;94.10
18454;DHT22;9356;52.202;20.950;2023-12-22T08:10:03;5.10;95.70
18454;DHT22;9356;52.202;20.950;2023-12-22T08:11:59;5.20;95.10
18454;DHT22;9356;52.202;20.950;2023-12-22T08:14:42;5.40;95.30
18454;DHT22;9356;52.202;20.950;2023-12-22T08:15:54;6.00;94.10
18454;DHT22;9356;52.202;20.950;2023-12-22T08:16:59;5.70;93.60
18454;DHT22;9356;52.202;20.950;2023-12-22T08:19:57;5.70;94.00
18454;DHT22;9356;52.202;20.950;2023-12-22T08:21:21;5.80;94.30
18454;DHT22;9356;52.202;20.950;2023-12-22T08:22:51;5.80;95.70
18454;DHT22;9356;52.202;20.950;2023-12-22T08:25:28;5.90;96.00
18454;DHT22;9356;52.202;20.950;2023-12-22T08:34:18;5.90;96.60
18454;DHT22;9356;52.202;20.950;2023-12-22T08:37:18;6.10;99.90
18454;DHT22;9356;52.202;20.950;2023-12-22T08:38:31;6.30;97.20
18454;DHT22;9356;52.202;20.950;2023-12-22T08:51:37;6.40;99.90
18454;DHT22;9356;52.202;20.950;2023-12-22T08:52:52;6.70;99.90
18454;DHT22;9356;52.202;20.950;2023-12-22T08:54:01;6.90;99.50
18454;DHT22;9356;52.202;20.950;2023-12-22T08:55:11;6.50;96.80
18454;DHT22;9356;52.202;20.950;2023-12-22T09:01:48;6.20;96.60
18454;DHT22;9356;52.202;20.950;2023-12-22T09:09:15;6.20;97.50
18454;DHT22;9356;52.202;20.950;2023-12-22T09:10:19;6.10;97.40
18454;DHT22;9356;52.202;20.950;2023-12-22T09:16:21;6.00;97.00
18454;DHT22;9356;52.202;20.950;2023-12-22T09:17:47;5.90;98.00
18454;DHT22;9356;52.202;20.950;2023-12-22T09:19:13;5.80;98.00
18454;DHT22;9356;52.202;20.950;2023-12-22T09:20:30;5.80;97.60
18454;DHT22;9356;52.202;20.950;2023-12-22T09:21:43;6.00;97.40
18454;DHT22;9356;52.202;20.950;2023-12-22T10:05:51;5.00;98.00
18454;DHT22;9356;52.202;20.950;2023-12-22T10:07:22;4.80;98.70
18454;DHT22;9356;52.202;20.950;2023-12-22T10:09:13;4.70;99.00
18454;DHT22;9356;52.202;20.950;2023-12-22T10:11:45;4.70;99.20
18454;DHT22;9356;52.202;20.950;2023-12-22T10:13:01;4.10;99.90
18454;DHT22;9356;52.202;20.950;2023-12-22T10:15:32;4.00;99.90
18454;DHT22;9356;52.202;20.950;2023-12-22T10:19:33;3.50;99.90
18454;DHT22;9356;52.202;20.950;2023-12-22T10:21:43;3.50;99.90
18454;DHT22;9356;52.202;20.950;2023-12-22T10:29:37;2.40;99.90
18454;DHT22;9356;52.202;20.950;2023-12-22T10:34:52;1.80;99.90
18454;DHT22;9356;52.202;20.950;2023-12-22T10:37:35;1.80;99.90
18454;DHT22;9356;52.202;20.950;2023-12-22T11:12:01;2.10;99.90
18454;DHT22;9356;52.202;20.950;2023-12-22T11:14:40;2.20;99.90
18454;DHT22;9356;52.202;20.950;2023-12-22T11:17:11;2.30;99.90
18454;DHT22;9356;52.202;20.950;2023-12-22T11:18:58;2.50;99.90
18454;DHT22;9356;52.202;20.950;2023-12-22T11:30:29;2.70;99.90
18454;DHT22;9356;52.202;20.950;2023-12-22T11:32:15;2.80;99.90
18454;DHT22;9356;52.202;20.950;2023-12-22T11:45:54;2.50;99.90
18454;DHT22;9356;52.202;20.950;2023-12-22T11:53:56;2.80;99.90
18454;DHT22;9356;52.202;20.950;2023-12-22T11:56:26;2.60;99.90
18454;DHT22;9356;52.202;20.950;2023-12-22T11:58:34;2.60;99.90
18454;DHT22;9356;52.202;20.950;2023-12-22T12:14:09;2.70;99.90
18454;DHT22;9356;52.202;20.950;2023-12-22T12:15:38;2.90;99.90
18454;DHT22;9356;52.202;20.950;2023-12-22T12:17:05;3.00;99.90
18454;DHT22;9356;52.202;20.950;2023-12-22T12:19:10;3.10;99.90
18454;DHT22;9356;52.202;20.950;2023-12-22T12:21:58;3.20;99.90
18454;DHT22;9356;52.202;20.950;2023-12-22T12:25:56;3.20;99.90
18454;DHT22;9356;52.202;20.950;2023-12-22T12:27:02;3.10;99.90
18454;DHT22;9356;52.202;20.950;2023-12-22T12:28:09;3.30;99.90
18454;DHT22;9356;52.202;20.950;2023-12-22T12:29:19;3.10;99.90
18454;DHT22;9356;52.202;20.950;2023-12-22T12:30:24;3.00;99.90
18454;DHT22;9356;52.202;20.950;2023-12-22T12:31:40;3.10;99.90
18454;DHT22;9356;52.202;20.950;2023-12-22T12:32:45;2.90;99.90
18454;DHT22;9356;52.202;20.950;2023-12-22T12:33:54;2.90;99.90
18454;DHT22;9356;52.202;20.950;2023-12-22T12:35:14;2.80;99.90
18454;DHT22;9356;52.202;20.950;2023-12-22T12:36:19;2.80;99.90
18454;DHT22;9356;52.202;20.950;2023-12-22T12:37:24;2.90;99.90
18454;DHT22;9356;52.202;20.950;2023-12-22T12:38:42;2.90;99.90
18454;DHT22;9356;52.202;20.950;2023-12-22T12:39:52;2.80;99.90
18454;DHT22;9356;52.202;20.950;2023-12-22T12:41:04;3.10;99.90
18454;DHT22;9356;52.202;20.950;2023-12-22T12:42:15;2.90;99.90
18454;DHT22;9356;52.202;20.950;2023-12-22T12:43:22;3.00;99.90
18454;DHT22;9356;52.202;20.950;2023-12-22T12:44:27;2.90;99.90
18454;DHT22;9356;52.202;20.950;2023-12-22T12:45:38;2.90;99.90
18454;DHT22;9356;52.202;20.950;2023-12-22T12:46:41;2.80;99.90
18454;DHT22;9356;52.202;20.950;2023-12-22T12:47:57;2.80;99.90
18454;DHT22;9356;52.202;20.950;2023-12-22T12:49:08;2.90;99.90
18454;DHT22;9356;52.202;20.950;2023-12-22T12:50:26;2.90;99.90
18454;DHT22;9356;52.202;20.950;2023-12-22T12:51:31;3.00;99.90
18454;DHT22;9356;52.202;20.950;2023-12-22T12:52:41;3.20;99.90
18454;DHT22;9356;52.202;20.950;2023-12-22T12:53:46;2.80;99.90
18454;DHT22;9356;52.202;20.950;2023-12-22T12:54:51;2.70;99.90
18454;DHT22;9356;52.202;20.950;2023-12-22T12:55:58;2.80;99.90
18454;DHT22;9356;52.202;20.950;2023-12-22T12:57:02;2.70;99.90
18454;DHT22;9356;52.202;20.950;2023-12-22T12:58:08;2.60;99.90
18454;DHT22;9356;52.202;20.950;2023-12-22T12:59:14;2.50;99.90
18454;DHT22;9356;52.202;20.950;2023-12-22T13:00:25;2.30;99.90
18454;DHT22;9356;52.202;20.950;2023-12-22T13:01:30;2.20;99.90